Time;durP1;ratioP1;P1;durP2;ratioP2;P2;SDS_P1;SDS_P2;PMS_P1;PMS_P2;Temp;Humidity;BMP_temperature;BMP_pressure;BME280_temperature;BME280_humidity;BME280_pressure;Samples;Min_cycle;Max_cycle;Signal;HPM_P1;HPM_P2
2022/07/28 00:02:30;;;;;;;;;;;;;;;;;;;;;
2022/07/28 00:04:59;;;;;;;8.20;4.40;;;;;;;13.87;60.23;100723.14;108420;1276;22004;-75
2022/07/28 00:07:28;;;;;;;11.70;4.90;;;;;;;13.84;60.38;100726.11;108397;1276;23645;-75
2022/07/28 00:09:57;;;;;;;11.00;3.90;;;;;;;13.83;60.69;100724.54;108550;1273;22065;-75
2022/07/28 00:12:28;;;;;;;6.80;4.30;;;;;;;13.83;61.06;100727.92;108732;1273;23009;-75
2022/07/28 00:15:01;;;;;;;7.70;4.10;;;;;;;13.82;61.25;100729.77;108825;1267;23578;-75
2022/07/28 00:17:32;;;;;;;9.60;5.10;;;;;;;13.81;61.45;100727.71;109257;1266;22727;-75
2022/07/28 00:20:05;;;;;;;9.30;4.70;;;;;;;13.81;61.56;100726.15;109011;1265;22989;-76
2022/07/28 00:22:40;;;;;;;9.60;4.50;;;;;;;13.81;61.72;100728.84;108746;1272;21985;-75
2022/07/28 00:25:12;;;;;;;8.50;5.20;;;;;;;13.78;61.63;100729.48;108742;1273;22017;-75
2022/07/28 00:27:45;;;;;;;9.20;4.70;;;;;;;13.75;61.72;100730.13;108432;1275;22019;-75
2022/07/28 00:30:18;;;;;;;10.30;4.60;;;;;;;13.71;61.75;100729.00;108552;1275;23768;-76
2022/07/28 00:32:49;;;;;;;9.30;5.10;;;;;;;13.70;62.08;100729.23;108116;1280;22769;-76
2022/07/28 00:35:18;;;;;;;11.10;4.60;;;;;;;13.68;62.29;100728.26;108064;1281;23818;-76
2022/07/28 00:37:59;;;;;;;8.30;4.80;;;;;;;13.66;62.52;100730.42;108070;1281;23722;-76
2022/07/28 00:43:17;;;;;;;10.80;5.40;;;;;;;13.63;62.78;100724.37;108651;1273;22213;-76
2022/07/28 00:45:46;;;;;;;8.50;5.00;;;;;;;13.60;62.86;100724.33;108559;1270;21990;-75
2022/07/28 00:48:15;;;;;;;11.70;5.40;;;;;;;13.57;62.89;100722.00;108866;1267;21996;-73
2022/07/28 00:50:44;;;;;;;10.50;5.00;;;;;;;13.54;62.94;100723.05;109088;1264;23043;-75
2022/07/28 00:53:14;;;;;;;10.20;5.40;;;;;;;13.51;62.98;100718.98;109278;1263;23611;-75
2022/07/28 00:55:43;;;;;;;8.60;5.20;;;;;;;13.48;62.96;100719.58;109305;1264;21984;-74
2022/07/28 00:58:34;;;;;;;9.50;4.70;;;;;;;13.42;63.00;100723.41;109412;1263;21978;-75
2022/07/28 01:01:06;;;;;;;15.30;5.70;;;;;;;13.36;62.97;100720.38;109286;1264;23746;-75
2022/07/28 01:03:42;;;;;;;10.80;5.70;;;;;;;13.32;63.06;100721.89;109304;1263;21997;-75
2022/07/28 01:06:39;;;;;;;11.70;6.20;;;;;;;13.29;63.18;100721.04;109644;1263;21981;-74
2022/07/28 01:09:37;;;;;;;8.60;4.40;;;;;;;13.24;63.26;100719.72;109782;1263;23092;-75
2022/07/28 01:12:24;;;;;;;8.30;5.20;;;;;;;13.20;63.44;100717.99;109523;1264;22047;-75
2022/07/28 01:15:27;;;;;;;11.50;6.30;;;;;;;13.17;63.42;100716.92;109751;1262;21986;-75
2022/07/28 01:18:15;;;;;;;8.30;5.00;;;;;;;13.11;63.59;100718.52;109386;1264;21984;-74
2022/07/28 01:20:53;;;;;;;23.70;5.70;;;;;;;13.07;63.68;100716.09;109341;1263;22260;-77
2022/07/28 01:23:31;;;;;;;14.90;5.60;;;;;;;13.04;63.80;100717.65;108847;1272;22770;-74
2022/07/28 01:26:25;;;;;;;9.10;5.10;;;;;;;13.03;64.01;100718.98;108830;1270;22006;-75
2022/07/28 01:29:37;;;;;;;8.80;6.20;;;;;;;13.02;64.06;100719.69;108670;1273;22197;-75
2022/07/28 01:32:19;;;;;;;10.50;5.20;;;;;;;12.97;64.11;100720.63;108661;1273;21984;-75
2022/07/28 01:34:59;;;;;;;12.60;5.90;;;;;;;12.94;64.14;100719.21;108707;1273;23723;-75
2022/07/28 01:37:37;;;;;;;10.90;5.50;;;;;;;12.91;64.27;100716.84;108508;1276;24441;-75
2022/07/28 01:40:09;;;;;;;7.70;5.10;;;;;;;12.90;64.36;100716.77;108245;1278;22065;-75
2022/07/28 01:42:45;;;;;;;11.80;5.60;;;;;;;12.88;64.29;100718.08;108719;1271;22220;-75
2022/07/28 01:45:17;;;;;;;17.90;5.80;;;;;;;12.86;64.28;100720.12;108799;1270;21954;-75
2022/07/28 01:47:48;;;;;;;11.80;5.30;;;;;;;12.84;64.56;100725.59;108968;1267;22096;-76
2022/07/28 01:50:23;;;;;;;7.60;5.60;;;;;;;12.83;64.70;100726.09;108913;1267;21990;-75
2022/07/28 01:52:55;;;;;;;10.60;5.80;;;;;;;12.82;64.87;100728.13;109117;1267;21996;-75
2022/07/28 01:55:28;;;;;;;8.70;5.80;;;;;;;12.82;64.90;100731.11;109070;1267;23774;-75
2022/07/28 01:58:00;;;;;;;10.70;6.30;;;;;;;12.80;65.05;100730.49;109189;1264;22098;-76
2022/07/28 02:00:31;;;;;;;11.70;6.80;;;;;;;12.79;65.24;100728.86;109392;1264;22223;-76
2022/07/28 02:03:04;;;;;;;13.10;6.40;;;;;;;12.78;65.33;100728.04;109444;1264;22055;-76
2022/07/28 02:05:36;;;;;;;10.20;6.20;;;;;;;12.78;65.53;100730.69;108865;1270;22035;-75
2022/07/28 02:08:07;;;;;;;8.40;5.20;;;;;;;12.79;65.48;100729.02;108768;1270;22977;-75
2022/07/28 02:10:41;;;;;;;10.90;6.70;;;;;;;12.78;65.45;100726.19;108941;1269;22012;-75
2022/07/28 02:13:10;;;;;;;12.40;6.60;;;;;;;12.76;65.36;100726.02;108892;1270;22969;-75
2022/07/28 02:15:40;;;;;;;8.60;5.90;;;;;;;12.72;65.46;100726.97;108714;1273;23737;-76
2022/07/28 02:18:11;;;;;;;8.30;6.20;;;;;;;12.71;65.71;100725.67;108730;1273;24313;-76
2022/07/28 02:20:41;;;;;;;11.50;5.90;;;;;;;12.70;65.93;100728.40;108402;1276;21987;-76
2022/07/28 02:23:13;;;;;;;14.50;6.00;;;;;;;12.68;65.88;100733.55;107965;1279;21997;-76
2022/07/28 02:25:43;;;;;;;7.70;5.40;;;;;;;12.66;65.80;100731.91;108377;1279;23018;-77
2022/07/28 02:28:13;;;;;;;9.90;5.70;;;;;;;12.64;65.99;100734.56;108377;1278;23777;-76
2022/07/28 02:30:59;;;;;;;9.50;6.00;;;;;;;12.63;66.00;100733.30;108337;1278;23616;-77
2022/07/28 02:33:28;;;;;;;13.30;6.90;;;;;;;12.58;65.92;100735.73;108401;1276;21992;-76
2022/07/28 02:36:26;;;;;;;10.10;5.80;;;;;;;12.53;66.01;100739.54;108416;1275;22411;-76
2022/07/28 02:39:06;;;;;;;10.70;6.10;;;;;;;12.51;66.40;100739.75;108574;1270;22004;-77
2022/07/28 02:41:41;;;;;;;9.50;5.40;;;;;;;12.52;66.62;100742.89;108630;1270;21969;-76
2022/07/28 02:44:16;;;;;;;10.00;6.20;;;;;;;12.50;66.46;100743.38;108650;1273;21992;-76
2022/07/28 02:46:51;;;;;;;10.30;5.50;;;;;;;12.49;66.40;100749.52;108521;1276;21988;-78
2022/07/28 02:49:30;;;;;;;10.00;6.40;;;;;;;12.46;66.43;100744.56;108369;1276;23243;-76
2022/07/28 02:52:02;;;;;;;11.90;6.60;;;;;;;12.42;66.35;100743.75;108489;1276;23642;-76
2022/07/28 02:54:33;;;;;;;13.00;7.90;;;;;;;12.38;66.35;100744.55;108443;1275;22086;-75
2022/07/28 02:57:04;;;;;;;9.00;6.70;;;;;;;12.33;66.32;100745.98;108389;1276;23159;-76
2022/07/28 02:59:35;;;;;;;10.10;6.20;;;;;;;12.25;66.23;100750.24;108532;1273;23059;-79
2022/07/28 03:02:05;;;;;;;9.30;6.80;;;;;;;12.16;66.18;100755.13;108790;1267;21953;-74
2022/07/28 03:07:28;;;;;;;10.30;6.90;;;;;;;11.92;66.48;100758.58;108677;1273;22879;-76
2022/07/28 03:09:59;;;;;;;14.80;7.60;;;;;;;11.87;66.91;100761.24;108703;1273;21987;-75
2022/07/28 03:12:28;;;;;;;11.60;7.60;;;;;;;11.81;66.85;100766.08;108832;1270;23780;-75
2022/07/28 03:14:57;;;;;;;12.80;7.80;;;;;;;11.76;66.97;100769.63;108855;1270;23180;-76
2022/07/28 03:17:26;;;;;;;11.10;7.80;;;;;;;11.73;67.18;100770.31;108778;1270;22800;-76
2022/07/28 03:19:55;;;;;;;12.70;7.70;;;;;;;11.70;67.25;100774.21;108802;1270;22013;-76
2022/07/28 03:22:27;;;;;;;10.70;7.20;;;;;;;11.65;67.35;100774.34;109088;1264;23704;-76
2022/07/28 03:24:59;;;;;;;14.90;7.70;;;;;;;11.63;67.50;100774.75;108951;1267;22039;-76
2022/07/28 03:27:33;;;;;;;18.40;8.80;;;;;;;11.61;67.51;100780.77;108828;1270;23740;-76
2022/07/28 03:30:28;;;;;;;15.10;6.90;;;;;;;11.61;67.68;100782.75;108552;1270;22789;-76
2022/07/28 03:33:01;;;;;;;13.00;7.40;;;;;;;11.57;67.81;100783.34;108805;1270;22060;-76
2022/07/28 03:35:34;;;;;;;11.50;7.20;;;;;;;11.52;67.70;100787.16;108533;1276;23822;-76
2022/07/28 03:38:17;;;;;;;13.30;7.40;;;;;;;11.49;67.85;100786.27;108513;1276;23091;-76
2022/07/28 03:40:51;;;;;;;8.40;6.50;;;;;;;11.45;67.92;100788.11;108435;1276;23092;-74
2022/07/28 03:43:24;;;;;;;9.30;6.90;;;;;;;11.42;68.03;100790.36;108456;1276;21982;-74
2022/07/28 03:45:54;;;;;;;10.00;6.70;;;;;;;11.41;68.24;100791.35;108415;1273;23688;-75
2022/07/28 03:48:30;;;;;;;11.10;5.70;;;;;;;11.46;68.46;100794.60;108475;1273;21991;-76
2022/07/28 03:50:59;;;;;;;16.70;7.80;;;;;;;11.51;68.62;100798.77;108785;1270;22244;-85
2022/07/28 03:53:29;;;;;;;11.20;7.00;;;;;;;11.60;68.82;100799.73;109109;1267;23723;-85
2022/07/28 03:56:05;;;;;;;18.80;7.50;;;;;;;11.70;68.84;100798.10;109162;1267;23656;-85
2022/07/28 03:58:35;;;;;;;8.00;6.00;;;;;;;11.81;68.93;100803.66;109209;1267;23094;-84
2022/07/28 04:01:04;;;;;;;10.50;7.10;;;;;;;11.91;68.69;100803.60;109303;1267;21975;-84
2022/07/28 04:03:33;;;;;;;11.20;7.90;;;;;;;11.98;68.35;100802.77;109468;1264;21963;-84
2022/07/28 04:06:13;;;;;;;8.90;6.60;;;;;;;12.06;68.18;100808.60;109628;1264;23696;-85
2022/07/28 04:08:43;;;;;;;12.10;7.50;;;;;;;12.13;68.13;100808.36;109560;1264;23159;-84
2022/07/28 04:11:13;;;;;;;19.40;8.10;;;;;;;12.20;68.07;100807.73;109540;1263;21983;-85
2022/07/28 04:13:42;;;;;;;13.80;7.70;;;;;;;12.30;67.99;100807.64;109593;1264;21979;-85
2022/07/28 04:16:11;;;;;;;16.30;7.00;;;;;;;12.37;67.88;100807.70;109661;1264;23708;-84
2022/07/28 04:18:41;;;;;;;16.10;7.30;;;;;;;12.44;67.69;100810.41;109560;1264;24415;-84
2022/07/28 04:21:10;;;;;;;12.70;7.80;;;;;;;12.53;67.69;100812.67;109247;1267;22211;-84
2022/07/28 04:23:40;;;;;;;11.00;7.00;;;;;;;12.62;67.62;100812.16;109084;1269;24326;-84
2022/07/28 04:26:19;;;;;;;11.20;6.90;;;;;;;12.71;67.56;100814.89;109125;1269;21990;-84
2022/07/28 04:28:48;;;;;;;22.10;6.70;;;;;;;12.77;67.03;100813.67;109107;1269;22274;-84
2022/07/28 04:31:21;;;;;;;8.60;6.90;;;;;;;12.78;66.86;100812.88;108636;1275;23071;-84
2022/07/28 04:33:52;;;;;;;20.20;8.30;;;;;;;12.82;67.10;100813.69;108758;1275;23100;-75
2022/07/28 04:36:25;;;;;;;13.20;7.20;;;;;;;12.89;66.96;100816.13;108418;1275;23365;-76
2022/07/28 04:39:10;;;;;;;17.30;8.10;;;;;;;12.99;67.19;100823.23;108595;1269;22123;-76
2022/07/28 04:41:40;;;;;;;14.90;8.40;;;;;;;13.12;67.09;100824.80;108937;1270;21984;-77
2022/07/28 04:44:15;;;;;;;16.00;11.10;;;;;;;13.27;66.82;100821.98;108871;1270;21977;-76
2022/07/28 04:46:45;;;;;;;15.40;7.70;;;;;;;13.41;66.65;100823.83;108970;1269;22302;-76
2022/07/28 04:49:15;;;;;;;18.60;8.20;;;;;;;13.55;66.49;100826.10;109060;1267;23045;-78
2022/07/28 04:51:49;;;;;;;18.50;9.20;;;;;;;13.70;66.30;100834.04;109175;1267;23155;-76
2022/07/28 04:54:25;;;;;;;17.40;8.10;;;;;;;13.85;66.15;100836.15;109024;1270;22054;-77
2022/07/28 04:57:04;;;;;;;14.20;8.10;;;;;;;14.01;65.92;100836.05;109435;1263;21994;-76
2022/07/28 04:59:45;;;;;;;12.90;7.70;;;;;;;14.18;65.78;100834.09;109301;1263;23677;-77
2022/07/28 05:02:16;;;;;;;23.20;7.90;;;;;;;14.34;65.20;100828.10;109318;1264;22222;-77
2022/07/28 05:04:45;;;;;;;14.00;7.90;;;;;;;14.44;64.47;100824.95;109400;1263;21976;-76
2022/07/28 05:07:14;;;;;;;13.10;8.20;;;;;;;14.54;64.19;100822.45;109566;1263;21989;-77
2022/07/28 05:09:43;;;;;;;16.80;8.60;;;;;;;14.63;63.79;100823.16;109525;1263;23604;-76
2022/07/28 05:12:12;;;;;;;25.90;9.50;;;;;;;14.75;63.62;100825.65;109543;1263;23693;-76
2022/07/28 05:14:41;;;;;;;15.90;7.70;;;;;;;14.85;63.06;100822.16;109803;1261;21975;-78
2022/07/28 05:17:12;;;;;;;14.90;7.50;;;;;;;14.94;62.69;100823.70;109817;1262;22073;-78
2022/07/28 05:19:45;;;;;;;14.50;7.20;;;;;;;15.08;62.50;100824.71;109339;1263;23628;-77
2022/07/28 05:22:14;;;;;;;10.00;6.20;;;;;;;15.26;62.08;100830.62;109666;1262;21980;-76
2022/07/28 05:24:44;;;;;;;23.60;6.60;;;;;;;15.46;61.66;100828.19;109297;1261;21975;-76
2022/07/28 05:27:16;;;;;;;13.70;7.20;;;;;;;15.70;61.19;100829.70;109585;1261;22275;-76
2022/07/28 05:29:46;;;;;;;10.50;6.70;;;;;;;15.93;60.82;100829.84;109611;1260;21970;-77
2022/07/28 05:32:16;;;;;;;15.50;6.80;;;;;;;16.23;60.39;100834.60;109462;1261;23083;-76
2022/07/28 05:34:46;;;;;;;10.00;5.80;;;;;;;16.49;59.37;100835.28;109786;1264;23573;-76
2022/07/28 05:37:15;;;;;;;21.70;15.70;;;;;;;16.75;58.63;100834.65;109480;1264;22849;-77
2022/07/28 05:39:44;;;;;;;12.30;6.70;;;;;;;17.00;57.81;100831.52;109566;1261;21970;-77
2022/07/28 05:42:47;;;;;;;;;;;;;;;;;;;;;
2022/07/28 05:45:50;;;;;;;9.60;4.80;;;;;;;17.58;56.35;100831.27;109630;1261;21976;-81
2022/07/28 05:48:21;;;;;;;9.30;4.60;;;;;;;17.98;55.94;100836.23;109949;1260;23762;-77
2022/07/28 05:50:50;;;;;;;13.80;5.30;;;;;;;18.33;54.66;100835.72;109764;1260;22446;-81
2022/07/28 05:53:20;;;;;;;10.80;5.20;;;;;;;18.66;53.56;100835.52;109513;1261;23872;-78
2022/07/28 05:55:49;;;;;;;12.50;5.00;;;;;;;19.06;53.12;100837.11;109677;1261;22453;-78
2022/07/28 05:58:30;;;;;;;10.70;4.30;;;;;;;19.56;52.33;100841.36;109656;1261;23469;-78
2022/07/28 06:01:01;;;;;;;8.20;3.50;;;;;;;20.06;50.88;100841.14;109427;1264;23710;-79
2022/07/28 06:03:33;;;;;;;8.80;3.80;;;;;;;20.44;49.09;100846.11;109786;1267;22793;-79
2022/07/28 06:06:12;;;;;;;5.40;3.30;;;;;;;20.89;48.08;100846.42;109714;1267;22294;-80
2022/07/28 06:08:46;;;;;;;7.00;2.90;;;;;;;21.27;46.28;100847.46;109406;1267;23184;-78
2022/07/28 06:11:15;;;;;;;8.00;2.70;;;;;;;21.63;45.10;100853.79;109620;1267;21979;-80
2022/07/28 06:13:51;;;;;;;8.90;2.60;;;;;;;22.11;44.60;100849.63;109653;1267;22013;-78
2022/07/28 06:16:21;;;;;;;6.30;3.30;;;;;;;22.55;43.06;100856.59;108831;1273;23715;-75
2022/07/28 06:18:54;;;;;;;9.90;2.70;;;;;;;22.82;41.90;100857.97;109024;1273;22194;-75
2022/07/28 06:21:23;;;;;;;9.10;2.50;;;;;;;23.08;41.25;100856.98;109080;1270;23847;-75
2022/07/28 06:24:00;;;;;;;5.70;2.70;;;;;;;23.46;41.52;100854.95;109270;1270;22365;-74
2022/07/28 06:26:30;;;;;;;5.90;2.20;;;;;;;23.99;41.14;100851.88;109034;1273;22013;-74
2022/07/28 06:28:59;;;;;;;5.20;2.10;;;;;;;24.53;39.76;100855.91;108801;1273;22260;-75
2022/07/28 06:31:28;;;;;;;7.30;2.30;;;;;;;24.94;38.22;100860.70;108766;1273;23668;-76
2022/07/28 06:33:57;;;;;;;5.30;2.80;;;;;;;25.12;37.11;100860.36;108793;1267;23076;-75
2022/07/28 06:36:26;;;;;;;6.20;5.60;;;;;;;25.33;37.36;100859.05;109059;1267;23045;-76
2022/07/28 06:38:55;;;;;;;7.10;3.20;;;;;;;25.70;36.99;100857.92;109283;1267;23486;-74
2022/07/28 06:41:23;;;;;;;7.80;4.70;;;;;;;25.87;35.17;100858.69;109192;1267;23682;-74
2022/07/28 06:43:52;;;;;;;5.50;3.40;;;;;;;25.95;35.47;100859.78;108978;1264;23692;-75
2022/07/28 06:46:21;;;;;;;5.40;3.10;;;;;;;26.18;34.90;100858.20;109596;1261;21977;-74
2022/07/28 06:48:50;;;;;;;5.70;3.20;;;;;;;26.35;34.49;100861.52;109594;1261;23107;-75
2022/07/28 06:51:22;;;;;;;6.70;2.50;;;;;;;26.51;33.82;100865.86;109636;1263;21975;-75
2022/07/28 06:53:51;;;;;;;8.20;2.20;;;;;;;26.64;33.75;100866.88;109433;1261;21990;-75
2022/07/28 06:56:21;;;;;;;43.70;4.70;;;;;;;26.82;33.02;100870.23;109348;1264;21978;-74
2022/07/28 06:58:51;;;;;;;8.20;2.20;;;;;;;26.83;32.32;100868.98;109554;1264;21981;-74
2022/07/28 07:01:20;;;;;;;11.30;2.40;;;;;;;26.86;32.50;100870.20;109582;1264;24446;-75
2022/07/28 07:03:49;;;;;;;3.70;1.70;;;;;;;27.02;32.42;100873.18;109564;1264;21990;-75
2022/07/28 07:06:18;;;;;;;4.60;1.60;;;;;;;27.21;31.75;100866.09;109600;1262;23106;-75
2022/07/28 07:08:47;;;;;;;4.90;2.20;;;;;;;27.41;31.46;100866.41;109617;1261;21969;-76
2022/07/28 07:11:16;;;;;;;5.70;1.90;;;;;;;27.66;31.24;100866.63;109949;1260;24091;-77
2022/07/28 07:13:45;;;;;;;5.60;1.70;;;;;;;27.83;30.45;100867.86;109553;1262;23026;-75
2022/07/28 07:16:14;;;;;;;8.90;1.80;;;;;;;27.86;30.01;100867.44;109733;1260;21984;-75
2022/07/28 07:18:43;;;;;;;7.70;2.20;;;;;;;27.87;30.22;100863.27;109618;1261;22066;-76
2022/07/28 07:21:13;;;;;;;7.40;1.90;;;;;;;27.95;30.12;100863.86;109379;1261;23048;-75
2022/07/28 07:23:42;;;;;;;62.30;6.10;;;;;;;27.92;29.73;100868.42;109954;1260;22015;-75
2022/07/28 07:26:14;;;;;;;6.50;1.80;;;;;;;27.97;30.65;100865.38;109639;1261;23607;-76
2022/07/28 07:28:43;;;;;;;4.60;1.60;;;;;;;28.09;29.67;100867.49;109606;1262;21980;-75
2022/07/28 07:31:13;;;;;;;5.50;1.80;;;;;;;28.11;29.50;100869.35;109406;1261;22077;-80
2022/07/28 07:33:42;;;;;;;5.20;1.60;;;;;;;28.04;29.42;100870.55;108863;1267;22046;-78
2022/07/28 07:36:11;;;;;;;9.30;1.90;;;;;;;28.01;29.49;100871.26;108927;1268;21985;-78
2022/07/28 07:38:44;;;;;;;5.20;1.60;;;;;;;28.03;29.33;100869.23;108649;1273;23065;-79
2022/07/28 07:41:17;;;;;;;5.80;1.50;;;;;;;28.03;29.24;100866.42;108914;1272;22029;-77
2022/07/28 07:43:47;;;;;;;5.00;1.80;;;;;;;28.08;28.89;100871.13;108395;1277;23055;-79
2022/07/28 07:46:17;;;;;;;6.60;1.80;;;;;;;28.05;28.96;100870.22;108331;1279;22038;-78
2022/07/28 07:48:46;;;;;;;7.80;1.60;;;;;;;28.09;28.99;100867.34;108148;1279;23152;-77
2022/07/28 07:51:15;;;;;;;7.00;1.60;;;;;;;28.20;28.69;100871.57;108185;1276;22288;-78
2022/07/28 07:53:44;;;;;;;4.90;1.60;;;;;;;28.28;28.60;100871.34;108406;1279;21992;-80
2022/07/28 07:56:17;;;;;;;4.80;1.80;;;;;;;28.38;28.97;100875.46;108698;1273;22008;-81
2022/07/28 07:58:52;;;;;;;5.00;1.40;;;;;;;28.46;28.21;100874.34;109003;1274;22029;-79
2022/07/28 08:01:24;;;;;;;3.80;1.40;;;;;;;28.57;28.07;100876.60;108440;1273;22044;-79
2022/07/28 08:03:54;;;;;;;9.30;1.60;;;;;;;28.73;27.78;100872.64;108597;1267;23679;-78
2022/07/28 08:06:23;;;;;;;5.20;1.50;;;;;;;28.87;27.24;100875.42;108932;1270;23046;-80
2022/07/28 08:08:57;;;;;;;5.00;1.30;;;;;;;28.94;27.15;100880.40;108896;1272;23008;-81
2022/07/28 08:11:28;;;;;;;6.00;1.30;;;;;;;28.85;27.55;100881.09;109046;1273;21988;-81
2022/07/28 08:13:58;;;;;;;4.70;1.70;;;;;;;28.86;27.32;100876.73;109064;1273;22052;-83
2022/07/28 08:16:29;;;;;;;6.00;1.60;;;;;;;28.88;27.37;100873.92;109101;1272;21995;-80
2022/07/28 08:19:00;;;;;;;4.40;1.20;;;;;;;28.96;27.12;100872.52;108790;1267;23728;-79
2022/07/28 08:21:29;;;;;;;3.40;1.40;;;;;;;29.11;27.16;100873.63;108775;1273;21986;-79
2022/07/28 08:24:02;;;;;;;7.90;1.90;;;;;;;29.19;26.70;100877.45;108728;1272;22043;-77
2022/07/28 08:26:33;;;;;;;5.20;1.40;;;;;;;29.14;26.55;100881.08;108890;1267;22284;-81
2022/07/28 08:29:03;;;;;;;4.60;1.20;;;;;;;28.84;25.75;100877.73;109027;1268;24443;-77
2022/07/28 08:31:32;;;;;;;2.00;0.90;;;;;;;28.46;25.60;100881.23;108804;1272;22179;-78
2022/07/28 08:34:03;;;;;;;4.70;1.20;;;;;;;28.16;26.00;100881.03;108911;1271;23024;-80
2022/07/28 08:36:56;;;;;;;4.00;1.30;;;;;;;28.10;26.03;100880.33;108821;1272;21981;-81
2022/07/28 08:39:26;;;;;;;;;;;;;;;28.17;25.81;100879.60;108703;1273;21970;-78
2022/07/28 08:42:05;;;;;;;7.00;1.60;;;;;;;28.14;26.18;100875.97;108391;1276;23575;-80
2022/07/28 08:44:54;;;;;;;4.10;1.30;;;;;;;28.29;26.69;100874.98;108482;1279;23047;-79
2022/07/28 08:47:26;;;;;;;4.10;1.60;;;;;;;28.35;25.66;100874.40;108395;1276;22045;-79
2022/07/28 08:50:12;;;;;;;2.60;1.00;;;;;;;28.15;25.45;100872.77;108695;1273;22112;-79
2022/07/28 08:52:45;;;;;;;4.00;1.40;;;;;;;28.30;26.49;100869.27;108665;1273;22850;-79
2022/07/28 08:55:17;;;;;;;3.50;1.30;;;;;;;28.66;25.90;100871.52;108521;1273;23677;-79
2022/07/28 08:57:48;;;;;;;4.00;1.30;;;;;;;28.87;25.09;100874.73;108713;1273;23629;-78
2022/07/28 09:00:21;;;;;;;3.30;1.00;;;;;;;28.95;24.90;100875.89;108825;1270;22065;-79
2022/07/28 09:02:51;;;;;;;4.80;1.20;;;;;;;28.95;25.13;100872.86;109219;1264;23574;-79
2022/07/28 09:05:23;;;;;;;4.70;1.50;;;;;;;29.04;25.02;100869.95;109236;1267;22114;-80
2022/07/28 09:07:55;;;;;;;6.80;1.30;;;;;;;29.27;25.24;100869.48;109224;1267;23769;-79
2022/07/28 09:10:25;;;;;;;4.20;1.00;;;;;;;29.47;25.05;100863.05;108514;1273;22187;-79
2022/07/28 09:12:56;;;;;;;5.60;1.40;;;;;;;29.70;24.72;100865.31;108771;1270;22147;-77
2022/07/28 09:15:26;;;;;;;5.70;1.50;;;;;;;29.81;24.16;100865.66;108725;1273;23657;-78
2022/07/28 09:17:55;;;;;;;3.10;1.10;;;;;;;29.80;24.32;100865.25;108644;1273;23695;-79
2022/07/28 09:20:28;;;;;;;4.70;1.40;;;;;;;29.88;24.15;100867.69;108688;1273;22212;-78
2022/07/28 09:23:04;;;;;;;3.50;1.20;;;;;;;29.99;24.08;100868.15;108357;1278;23162;-78
2022/07/28 09:26:09;;;;;;;5.60;1.50;;;;;;;30.22;23.65;100864.64;108403;1276;21962;-79
2022/07/28 09:28:53;;;;;;;5.40;0.90;;;;;;;30.30;23.39;100859.28;108315;1276;22058;-79
2022/07/28 09:31:26;;;;;;;3.80;1.30;;;;;;;30.21;23.24;100859.85;108523;1272;23700;-80
2022/07/28 09:34:04;;;;;;;4.60;1.30;;;;;;;30.25;23.30;100856.05;108428;1279;23676;-79
2022/07/28 09:36:39;;;;;;;2.30;1.20;;;;;;;30.37;23.10;100855.30;108582;1273;23602;-78
2022/07/28 09:39:08;;;;;;;4.60;1.40;;;;;;;30.41;23.06;100853.89;108281;1278;23065;-78
2022/07/28 09:41:54;;;;;;;6.00;1.30;;;;;;;30.40;22.81;100859.24;108284;1273;22755;-78
2022/07/28 09:44:26;;;;;;;5.00;1.10;;;;;;;30.39;22.87;100854.02;108239;1279;22021;-79
2022/07/28 09:46:55;;;;;;;4.20;1.40;;;;;;;30.24;22.71;100851.92;108235;1279;22437;-78
2022/07/28 09:49:42;;;;;;;6.10;1.10;;;;;;;29.90;22.76;100848.45;108360;1276;23578;-78
2022/07/28 09:52:12;;;;;;;4.50;1.90;;;;;;;29.82;23.50;100845.56;108454;1273;23144;-79
2022/07/28 09:55:07;;;;;;;2.00;1.00;;;;;;;29.98;23.29;100836.01;108670;1273;23122;-80
2022/07/28 09:57:39;;;;;;;2.80;1.10;;;;;;;30.08;23.48;100836.02;109078;1268;21994;-80
2022/07/28 10:00:24;;;;;;;5.70;1.10;;;;;;;30.23;23.02;100836.24;108904;1267;22374;-79
2022/07/28 10:02:55;;;;;;;4.00;1.40;;;;;;;30.37;22.61;100837.67;108908;1267;21983;-79
2022/07/28 10:05:39;;;;;;;10.60;1.40;;;;;;;30.40;22.40;100835.90;108586;1275;21991;-80
2022/07/28 10:08:08;;;;;;;3.50;1.30;;;;;;;30.43;22.64;100835.77;108796;1273;23088;-81
2022/07/28 10:10:37;;;;;;;3.90;1.20;;;;;;;30.45;22.13;100837.05;109171;1273;23673;-79
2022/07/28 10:13:07;;;;;;;4.40;1.10;;;;;;;30.24;21.81;100836.98;108722;1273;22438;-79
2022/07/28 10:18:24;;;;;;;6.90;1.40;;;;;;;29.81;22.26;100834.63;108453;1275;22135;-78
2022/07/28 10:20:54;;;;;;;4.20;1.60;;;;;;;29.67;22.80;100832.98;108742;1270;22820;-78
2022/07/28 10:23:23;;;;;;;2.60;0.80;;;;;;;29.64;23.11;100836.19;109108;1263;22070;-78
2022/07/28 10:25:59;;;;;;;6.00;1.80;;;;;;;29.48;22.80;100831.24;109140;1266;21988;-80
2022/07/28 10:28:33;;;;;;;4.90;1.20;;;;;;;29.30;23.27;100827.02;109351;1263;21965;-80
2022/07/28 10:31:13;;;;;;;;;;;;;;;29.40;23.45;100826.95;109582;1266;23041;-79
2022/07/28 10:33:49;;;;;;;3.90;1.20;;;;;;;29.39;23.47;100824.88;109217;1264;24041;-80
2022/07/28 10:36:24;;;;;;;5.20;1.90;;;;;;;29.38;23.68;100827.17;109055;1263;23611;-81
2022/07/28 10:39:04;;;;;;;4.90;1.40;;;;;;;29.34;23.84;100825.56;109172;1266;22753;-79
2022/07/28 10:41:42;;;;;;;7.40;1.80;;;;;;;29.21;23.62;100825.70;109645;1263;21985;-80
2022/07/28 10:44:17;;;;;;;6.50;1.50;;;;;;;29.06;23.89;100824.36;109257;1264;23783;-79
2022/07/28 10:46:48;;;;;;;4.90;1.30;;;;;;;28.90;23.66;100818.36;109358;1264;23851;-83
2022/07/28 10:49:19;;;;;;;4.60;1.40;;;;;;;28.74;23.81;100814.52;109455;1264;22104;-82
2022/07/28 10:51:56;;;;;;;;;;;;;;;28.69;23.66;100812.47;109442;1264;23589;-80
2022/07/28 10:55:02;;;;;;;3.80;1.00;;;;;;;28.46;23.54;100810.31;109067;1270;23066;-80
2022/07/28 10:57:33;;;;;;;2.50;0.80;;;;;;;28.31;24.04;100806.08;108947;1273;22204;-79
2022/07/28 11:00:16;;;;;;;3.20;1.00;;;;;;;28.27;24.30;100810.92;108695;1273;22076;-79
2022/07/28 11:03:02;;;;;;;4.70;1.10;;;;;;;28.22;23.99;100812.94;108527;1274;22005;-81
2022/07/28 11:05:42;;;;;;;6.00;2.10;;;;;;;28.15;23.93;100813.05;108606;1276;22665;-79
2022/07/28 11:08:15;;;;;;;4.60;1.20;;;;;;;28.00;24.18;100809.61;108308;1278;22013;-80
2022/07/28 11:10:55;;;;;;;2.50;1.30;;;;;;;27.87;24.47;100803.70;108636;1279;23055;-80
2022/07/28 11:13:37;;;;;;;5.20;1.50;;;;;;;27.72;24.50;100798.95;108585;1273;22941;-80
2022/07/28 11:16:11;;;;;;;5.20;1.20;;;;;;;27.51;24.37;100797.52;108870;1270;23078;-80
2022/07/28 11:19:01;;;;;;;2.70;1.10;;;;;;;27.30;24.44;100800.95;108877;1271;21991;-80
2022/07/28 11:22:15;;;;;;;3.20;1.30;;;;;;;26.99;24.50;100801.06;108594;1273;22030;-79
2022/07/28 11:25:04;;;;;;;4.50;1.10;;;;;;;26.70;25.14;100797.91;108622;1272;22061;-80
2022/07/28 11:27:59;;;;;;;4.10;1.10;;;;;;;26.52;25.65;100792.73;108966;1272;22067;-82
2022/07/28 11:30:32;;;;;;;6.50;1.20;;;;;;;26.41;25.71;100792.48;108844;1276;22930;-80
2022/07/28 11:33:08;;;;;;;6.40;1.20;;;;;;;26.34;25.97;100788.21;108887;1270;22008;-80
2022/07/28 11:36:03;;;;;;;3.50;1.20;;;;;;;26.27;25.64;100787.30;109028;1273;22241;-80
2022/07/28 11:38:32;;;;;;;3.40;1.40;;;;;;;26.17;25.67;100786.53;108857;1276;22743;-82
2022/07/28 11:41:28;;;;;;;3.50;1.40;;;;;;;26.08;25.88;100786.73;108958;1273;23648;-80
2022/07/28 11:44:18;;;;;;;4.50;1.40;;;;;;;25.97;26.05;100784.40;108768;1276;23016;-80
2022/07/28 11:47:17;;;;;;;2.10;1.10;;;;;;;25.92;26.10;100787.62;108896;1276;22994;-81
2022/07/28 11:50:16;;;;;;;9.60;2.70;;;;;;;25.89;26.53;100786.13;108878;1276;22028;-79
2022/07/28 11:52:55;;;;;;;3.30;1.50;;;;;;;25.94;26.63;100789.96;108754;1276;22077;-78
2022/07/28 11:55:25;;;;;;;4.00;1.70;;;;;;;25.96;26.38;100790.13;108429;1270;476145;-83
2022/07/28 11:58:25;;;;;;;5.90;2.10;;;;;;;25.95;26.32;100786.06;109021;1273;22054;-81
2022/07/28 12:01:19;;;;;;;6.80;3.50;;;;;;;25.97;26.48;100785.26;108761;1276;22045;-81